sensor_id;sensor_type;location;lat;lon;timestamp;pressure;altitude;pressure_sealevel;temperature;humidity
51227;BME280;42714;48.260;10.980;2023-09-19T00:02:32;967.4;;;16.8;100.0
51227;BME280;42714;48.260;10.980;2023-09-19T00:07:33;967.5;;;16.9;100.0
51227;BME280;42714;48.260;10.980;2023-09-19T00:12:34;967.5;;;17.1;100.0
51227;BME280;42714;48.260;10.980;2023-09-19T00:17:35;967.5;;;17.0;100.0
51227;BME280;42714;48.260;10.980;2023-09-19T00:22:38;967.5;;;17.0;100.0
51227;BME280;42714;48.260;10.980;2023-09-19T00:27:40;967.5;;;17.0;100.0
51227;BME280;42714;48.260;10.980;2023-09-19T00:32:38;967.6;;;16.9;100.0
51227;BME280;42714;48.260;10.980;2023-09-19T00:37:39;967.7;;;16.9;100.0
51227;BME280;42714;48.260;10.980;2023-09-19T00:42:41;967.7;;;16.9;100.0
51227;BME280;42714;48.260;10.980;2023-09-19T00:47:42;967.8;;;17.0;100.0
51227;BME280;42714;48.260;10.980;2023-09-19T00:52:42;967.8;;;17.1;100.0
51227;BME280;42714;48.260;10.980;2023-09-19T00:57:43;967.9;;;17.0;100.0
51227;BME280;42714;48.260;10.980;2023-09-19T01:02:44;967.9;;;16.6;100.0
51227;BME280;42714;48.260;10.980;2023-09-19T01:07:45;967.9;;;16.3;100.0
51227;BME280;42714;48.260;10.980;2023-09-19T01:12:58;967.9;;;16.2;100.0
51227;BME280;42714;48.260;10.980;2023-09-19T01:17:49;967.9;;;16.2;100.0
51227;BME280;42714;48.260;10.980;2023-09-19T01:32:50;968.0;;;16.3;100.0
51227;BME280;42714;48.260;10.980;2023-09-19T01:37:51;967.9;;;16.3;100.0
51227;BME280;42714;48.260;10.980;2023-09-19T01:42:55;968.0;;;16.3;100.0
51227;BME280;42714;48.260;10.980;2023-09-19T01:47:54;968.0;;;16.4;100.0
51227;BME280;42714;48.260;10.980;2023-09-19T01:52:57;968.1;;;16.3;100.0
51227;BME280;42714;48.260;10.980;2023-09-19T01:57:59;968.1;;;16.3;100.0
51227;BME280;42714;48.260;10.980;2023-09-19T02:02:56;968.1;;;16.3;100.0
51227;BME280;42714;48.260;10.980;2023-09-19T02:07:57;968.2;;;16.1;100.0
51227;BME280;42714;48.260;10.980;2023-09-19T02:12:58;968.2;;;16.1;100.0
51227;BME280;42714;48.260;10.980;2023-09-19T02:17:59;968.2;;;16.1;100.0
51227;BME280;42714;48.260;10.980;2023-09-19T02:23:00;968.3;;;16.2;100.0
51227;BME280;42714;48.260;10.980;2023-09-19T02:28:01;968.3;;;16.1;100.0
51227;BME280;42714;48.260;10.980;2023-09-19T02:33:02;968.3;;;16.1;100.0
51227;BME280;42714;48.260;10.980;2023-09-19T02:38:03;968.3;;;16.0;100.0
51227;BME280;42714;48.260;10.980;2023-09-19T02:43:04;968.3;;;16.0;100.0
51227;BME280;42714;48.260;10.980;2023-09-19T02:48:05;968.4;;;16.1;100.0
51227;BME280;42714;48.260;10.980;2023-09-19T02:53:06;968.3;;;16.2;100.0
51227;BME280;42714;48.260;10.980;2023-09-19T02:58:07;968.4;;;16.4;100.0
51227;BME280;42714;48.260;10.980;2023-09-19T03:03:08;968.3;;;16.4;100.0
51227;BME280;42714;48.260;10.980;2023-09-19T03:08:09;968.4;;;16.5;100.0
51227;BME280;42714;48.260;10.980;2023-09-19T03:13:10;968.5;;;16.6;100.0
51227;BME280;42714;48.260;10.980;2023-09-19T03:18:11;968.4;;;16.6;100.0
51227;BME280;42714;48.260;10.980;2023-09-19T03:23:12;968.5;;;16.6;100.0
51227;BME280;42714;48.260;10.980;2023-09-19T03:28:14;968.5;;;16.5;100.0
51227;BME280;42714;48.260;10.980;2023-09-19T03:33:14;968.5;;;16.5;100.0
51227;BME280;42714;48.260;10.980;2023-09-19T03:38:15;968.5;;;16.5;100.0
51227;BME280;42714;48.260;10.980;2023-09-19T03:43:16;968.5;;;16.6;100.0
51227;BME280;42714;48.260;10.980;2023-09-19T03:48:17;968.5;;;16.7;100.0
51227;BME280;42714;48.260;10.980;2023-09-19T03:53:18;968.4;;;16.8;100.0
51227;BME280;42714;48.260;10.980;2023-09-19T03:58:19;968.5;;;16.9;100.0
51227;BME280;42714;48.260;10.980;2023-09-19T04:03:20;968.5;;;17.0;100.0
51227;BME280;42714;48.260;10.980;2023-09-19T04:08:21;968.5;;;17.0;100.0
51227;BME280;42714;48.260;10.980;2023-09-19T04:13:22;968.5;;;17.1;100.0
51227;BME280;42714;48.260;10.980;2023-09-19T04:18:24;968.6;;;17.1;100.0
51227;BME280;42714;48.260;10.980;2023-09-19T04:23:24;968.7;;;17.1;100.0
51227;BME280;42714;48.260;10.980;2023-09-19T04:28:25;968.8;;;16.8;100.0
51227;BME280;42714;48.260;10.980;2023-09-19T04:33:27;968.8;;;16.5;100.0
51227;BME280;42714;48.260;10.980;2023-09-19T04:38:28;968.8;;;16.5;100.0
51227;BME280;42714;48.260;10.980;2023-09-19T04:43:29;968.8;;;16.7;100.0
51227;BME280;42714;48.260;10.980;2023-09-19T04:48:30;968.9;;;16.8;100.0
51227;BME280;42714;48.260;10.980;2023-09-19T04:53:31;969.0;;;16.9;100.0
51227;BME280;42714;48.260;10.980;2023-09-19T04:58:32;969.0;;;16.9;100.0
51227;BME280;42714;48.260;10.980;2023-09-19T05:03:33;969.1;;;16.9;100.0
51227;BME280;42714;48.260;10.980;2023-09-19T05:08:34;969.1;;;16.9;100.0
51227;BME280;42714;48.260;10.980;2023-09-19T05:13:35;969.2;;;16.9;100.0
51227;BME280;42714;48.260;10.980;2023-09-19T05:18:36;969.3;;;17.0;100.0
51227;BME280;42714;48.260;10.980;2023-09-19T05:23:37;969.3;;;17.0;100.0
51227;BME280;42714;48.260;10.980;2023-09-19T05:28:38;969.4;;;17.0;100.0
51227;BME280;42714;48.260;10.980;2023-09-19T05:33:39;969.4;;;17.0;100.0
51227;BME280;42714;48.260;10.980;2023-09-19T05:38:40;969.5;;;17.0;100.0
51227;BME280;42714;48.260;10.980;2023-09-19T05:43:41;969.5;;;17.0;100.0
51227;BME280;42714;48.260;10.980;2023-09-19T05:48:42;969.6;;;16.8;100.0
51227;BME280;42714;48.260;10.980;2023-09-19T05:53:43;969.7;;;16.3;100.0
51227;BME280;42714;48.260;10.980;2023-09-19T05:58:44;969.7;;;16.0;100.0
51227;BME280;42714;48.260;10.980;2023-09-19T06:03:45;969.8;;;15.9;100.0
51227;BME280;42714;48.260;10.980;2023-09-19T06:08:46;969.8;;;15.9;100.0
51227;BME280;42714;48.260;10.980;2023-09-19T06:13:48;969.8;;;16.1;100.0
51227;BME280;42714;48.260;10.980;2023-09-19T06:18:49;969.8;;;16.1;100.0
51227;BME280;42714;48.260;10.980;2023-09-19T06:23:50;969.8;;;16.2;100.0
51227;BME280;42714;48.260;10.980;2023-09-19T06:28:51;969.8;;;16.3;100.0
51227;BME280;42714;48.260;10.980;2023-09-19T06:33:52;969.8;;;16.4;100.0
51227;BME280;42714;48.260;10.980;2023-09-19T06:38:53;969.8;;;16.5;100.0
51227;BME280;42714;48.260;10.980;2023-09-19T06:43:54;969.8;;;16.6;100.0
51227;BME280;42714;48.260;10.980;2023-09-19T06:48:55;969.9;;;16.9;100.0
51227;BME280;42714;48.260;10.980;2023-09-19T06:53:56;970.0;;;17.2;100.0
51227;BME280;42714;48.260;10.980;2023-09-19T06:58:57;970.0;;;17.4;100.0
51227;BME280;42714;48.260;10.980;2023-09-19T07:03:58;970.0;;;17.9;100.0
51227;BME280;42714;48.260;10.980;2023-09-19T07:08:59;969.9;;;18.2;100.0
51227;BME280;42714;48.260;10.980;2023-09-19T07:14:00;970.0;;;18.7;100.0
51227;BME280;42714;48.260;10.980;2023-09-19T07:19:01;970.0;;;19.0;100.0
51227;BME280;42714;48.260;10.980;2023-09-19T07:24:02;970.1;;;19.1;100.0
51227;BME280;42714;48.260;10.980;2023-09-19T07:29:03;970.1;;;19.2;100.0
51227;BME280;42714;48.260;10.980;2023-09-19T07:34:04;970.1;;;19.2;100.0
51227;BME280;42714;48.260;10.980;2023-09-19T07:39:05;970.2;;;19.2;100.0
51227;BME280;42714;48.260;10.980;2023-09-19T07:44:06;970.2;;;20.3;100.0
51227;BME280;42714;48.260;10.980;2023-09-19T07:49:07;970.1;;;22.5;100.0
51227;BME280;42714;48.260;10.980;2023-09-19T07:54:08;970.1;;;24.7;100.0
51227;BME280;42714;48.260;10.980;2023-09-19T07:59:09;970.1;;;26.0;100.0
51227;BME280;42714;48.260;10.980;2023-09-19T08:04:10;970.1;;;26.6;98.3
51227;BME280;42714;48.260;10.980;2023-09-19T08:09:11;970.1;;;26.5;90.3
51227;BME280;42714;48.260;10.980;2023-09-19T08:14:12;970.2;;;25.5;100.0
51227;BME280;42714;48.260;10.980;2023-09-19T08:19:13;970.1;;;25.4;100.0
51227;BME280;42714;48.260;10.980;2023-09-19T08:24:14;970.2;;;25.5;100.0
51227;BME280;42714;48.260;10.980;2023-09-19T08:29:15;970.1;;;25.8;100.0
51227;BME280;42714;48.260;10.980;2023-09-19T08:34:16;970.2;;;26.6;97.5
51227;BME280;42714;48.260;10.980;2023-09-19T08:39:17;970.2;;;26.8;84.5
51227;BME280;42714;48.260;10.980;2023-09-19T08:44:18;970.1;;;27.7;71.8
51227;BME280;42714;48.260;10.980;2023-09-19T08:49:21;970.1;;;27.8;68.0
51227;BME280;42714;48.260;10.980;2023-09-19T08:54:21;970.1;;;27.3;75.8
51227;BME280;42714;48.260;10.980;2023-09-19T08:59:21;970.0;;;28.4;59.8
51227;BME280;42714;48.260;10.980;2023-09-19T09:04:22;970.2;;;29.1;50.4
51227;BME280;42714;48.260;10.980;2023-09-19T09:09:23;970.3;;;27.7;54.7
51227;BME280;42714;48.260;10.980;2023-09-19T09:14:24;970.3;;;27.1;62.0
51227;BME280;42714;48.260;10.980;2023-09-19T09:19:25;970.4;;;27.2;64.9
51227;BME280;42714;48.260;10.980;2023-09-19T09:24:27;970.4;;;26.9;68.3
51227;BME280;42714;48.260;10.980;2023-09-19T09:39:29;970.3;;;25.3;87.3
51227;BME280;42714;48.260;10.980;2023-09-19T09:44:30;970.3;;;26.4;69.2
51227;BME280;42714;48.260;10.980;2023-09-19T09:49:31;970.3;;;26.5;61.6
51227;BME280;42714;48.260;10.980;2023-09-19T09:54:32;970.3;;;25.5;75.2
51227;BME280;42714;48.260;10.980;2023-09-19T10:04:34;970.4;;;25.7;82.2
51227;BME280;42714;48.260;10.980;2023-09-19T10:14:37;970.5;;;27.3;62.3
51227;BME280;42714;48.260;10.980;2023-09-19T10:19:37;970.4;;;26.5;66.7
51227;BME280;42714;48.260;10.980;2023-09-19T10:24:38;970.5;;;25.3;74.0
51227;BME280;42714;48.260;10.980;2023-09-19T10:29:39;970.5;;;25.7;74.9
51227;BME280;42714;48.260;10.980;2023-09-19T10:34:40;970.5;;;25.2;80.7
51227;BME280;42714;48.260;10.980;2023-09-19T10:39:41;970.6;;;24.8;89.5
51227;BME280;42714;48.260;10.980;2023-09-19T10:44:42;970.6;;;24.5;90.6
51227;BME280;42714;48.260;10.980;2023-09-19T10:49:44;970.7;;;24.1;100.0
51227;BME280;42714;48.260;10.980;2023-09-19T10:54:45;970.8;;;23.6;100.0
51227;BME280;42714;48.260;10.980;2023-09-19T11:04:46;970.7;;;23.3;100.0
51227;BME280;42714;48.260;10.980;2023-09-19T11:09:48;970.6;;;23.9;100.0
51227;BME280;42714;48.260;10.980;2023-09-19T11:14:48;970.6;;;23.5;100.0
51227;BME280;42714;48.260;10.980;2023-09-19T11:24:50;970.5;;;24.6;93.7
51227;BME280;42714;48.260;10.980;2023-09-19T11:29:51;970.4;;;26.7;71.6
51227;BME280;42714;48.260;10.980;2023-09-19T11:34:52;970.4;;;27.4;56.7
51227;BME280;42714;48.260;10.980;2023-09-19T11:44:54;970.6;;;24.8;90.3
51227;BME280;42714;48.260;10.980;2023-09-19T11:49:55;970.7;;;23.4;100.0
51227;BME280;42714;48.260;10.980;2023-09-19T11:54:56;970.7;;;22.1;100.0
51227;BME280;42714;48.260;10.980;2023-09-19T11:59:57;970.6;;;23.7;100.0
51227;BME280;42714;48.260;10.980;2023-09-19T12:04:58;970.5;;;26.4;93.6
51227;BME280;42714;48.260;10.980;2023-09-19T12:15:00;970.3;;;30.8;42.9
51227;BME280;42714;48.260;10.980;2023-09-19T12:20:01;970.3;;;32.1;38.6
51227;BME280;42714;48.260;10.980;2023-09-19T12:40:06;970.0;;;33.6;33.6
51227;BME280;42714;48.260;10.980;2023-09-19T12:45:06;970.0;;;33.8;32.1
51227;BME280;42714;48.260;10.980;2023-09-19T12:50:08;970.0;;;33.0;33.8
51227;BME280;42714;48.260;10.980;2023-09-19T12:55:18;970.0;;;31.8;34.8
51227;BME280;42714;48.260;10.980;2023-09-19T13:05:10;969.9;;;30.0;40.6
51227;BME280;42714;48.260;10.980;2023-09-19T13:10:11;970.0;;;29.5;41.6
51227;BME280;42714;48.260;10.980;2023-09-19T13:15:14;970.0;;;28.0;46.9
51227;BME280;42714;48.260;10.980;2023-09-19T13:25:15;970.0;;;26.3;63.2
51227;BME280;42714;48.260;10.980;2023-09-19T13:30:15;970.0;;;25.7;66.5
51227;BME280;42714;48.260;10.980;2023-09-19T13:35:16;970.0;;;25.6;69.5
51227;BME280;42714;48.260;10.980;2023-09-19T13:40:17;969.9;;;27.4;57.7
51227;BME280;42714;48.260;10.980;2023-09-19T13:45:18;969.7;;;28.9;45.7
51227;BME280;42714;48.260;10.980;2023-09-19T13:50:19;969.7;;;29.0;44.2
51227;BME280;42714;48.260;10.980;2023-09-19T13:55:20;969.7;;;27.6;52.8
51227;BME280;42714;48.260;10.980;2023-09-19T14:00:21;969.6;;;28.7;48.3
51227;BME280;42714;48.260;10.980;2023-09-19T14:05:22;969.6;;;29.9;40.4
51227;BME280;42714;48.260;10.980;2023-09-19T14:10:23;969.6;;;29.1;42.0
51227;BME280;42714;48.260;10.980;2023-09-19T14:15:24;969.5;;;28.5;44.3
51227;BME280;42714;48.260;10.980;2023-09-19T14:20:25;969.4;;;28.1;46.3
51227;BME280;42714;48.260;10.980;2023-09-19T14:25:26;969.4;;;26.8;51.6
51227;BME280;42714;48.260;10.980;2023-09-19T14:30:27;969.4;;;26.0;62.0
51227;BME280;42714;48.260;10.980;2023-09-19T14:35:28;969.4;;;26.2;58.2
51227;BME280;42714;48.260;10.980;2023-09-19T14:40:29;969.4;;;25.7;63.5
51227;BME280;42714;48.260;10.980;2023-09-19T14:45:30;969.3;;;25.5;62.3
51227;BME280;42714;48.260;10.980;2023-09-19T14:50:31;969.3;;;25.2;66.3
51227;BME280;42714;48.260;10.980;2023-09-19T14:55:35;969.3;;;25.3;62.4
51227;BME280;42714;48.260;10.980;2023-09-19T15:00:33;969.2;;;25.3;63.1
51227;BME280;42714;48.260;10.980;2023-09-19T15:05:34;969.2;;;25.6;62.0
51227;BME280;42714;48.260;10.980;2023-09-19T15:10:35;969.2;;;25.9;60.0
51227;BME280;42714;48.260;10.980;2023-09-19T15:15:36;969.2;;;26.3;53.6
51227;BME280;42714;48.260;10.980;2023-09-19T15:20:42;969.2;;;25.7;53.3
51227;BME280;42714;48.260;10.980;2023-09-19T15:25:38;969.3;;;24.4;61.1
51227;BME280;42714;48.260;10.980;2023-09-19T15:30:39;969.3;;;23.4;68.9
51227;BME280;42714;48.260;10.980;2023-09-19T15:35:40;969.3;;;22.8;75.2
51227;BME280;42714;48.260;10.980;2023-09-19T15:45:42;969.3;;;22.3;75.5
51227;BME280;42714;48.260;10.980;2023-09-19T15:50:43;969.4;;;22.1;80.5
51227;BME280;42714;48.260;10.980;2023-09-19T15:55:44;969.3;;;22.1;82.8
51227;BME280;42714;48.260;10.980;2023-09-19T16:00:45;969.3;;;22.0;88.1
51227;BME280;42714;48.260;10.980;2023-09-19T16:05:46;969.3;;;21.8;90.6
51227;BME280;42714;48.260;10.980;2023-09-19T16:10:47;969.3;;;21.6;93.4
51227;BME280;42714;48.260;10.980;2023-09-19T16:15:48;969.4;;;21.5;100.0
51227;BME280;42714;48.260;10.980;2023-09-19T16:20:49;969.4;;;21.4;100.0
51227;BME280;42714;48.260;10.980;2023-09-19T16:25:59;969.4;;;21.2;100.0
51227;BME280;42714;48.260;10.980;2023-09-19T16:30:51;969.4;;;21.1;100.0
51227;BME280;42714;48.260;10.980;2023-09-19T16:35:52;969.4;;;21.0;100.0
51227;BME280;42714;48.260;10.980;2023-09-19T16:40:54;969.4;;;20.9;100.0
51227;BME280;42714;48.260;10.980;2023-09-19T16:45:55;969.4;;;20.6;100.0
51227;BME280;42714;48.260;10.980;2023-09-19T16:50:59;969.3;;;20.5;100.0
51227;BME280;42714;48.260;10.980;2023-09-19T17:00:57;969.4;;;20.1;100.0
51227;BME280;42714;48.260;10.980;2023-09-19T17:05:58;969.4;;;19.9;100.0
51227;BME280;42714;48.260;10.980;2023-09-19T17:11:02;969.4;;;19.9;100.0
51227;BME280;42714;48.260;10.980;2023-09-19T17:16:01;969.3;;;19.5;100.0
51227;BME280;42714;48.260;10.980;2023-09-19T17:21:02;969.4;;;19.3;100.0
51227;BME280;42714;48.260;10.980;2023-09-19T17:26:04;969.4;;;19.1;100.0
51227;BME280;42714;48.260;10.980;2023-09-19T17:36:05;969.5;;;18.7;100.0
51227;BME280;42714;48.260;10.980;2023-09-19T17:41:06;969.5;;;18.5;100.0
51227;BME280;42714;48.260;10.980;2023-09-19T17:46:07;969.6;;;18.4;100.0
51227;BME280;42714;48.260;10.980;2023-09-19T17:51:07;969.5;;;18.3;100.0
51227;BME280;42714;48.260;10.980;2023-09-19T17:56:09;969.5;;;18.1;100.0
51227;BME280;42714;48.260;10.980;2023-09-19T18:01:18;969.6;;;18.1;100.0
51227;BME280;42714;48.260;10.980;2023-09-19T18:06:11;969.7;;;17.9;100.0
51227;BME280;42714;48.260;10.980;2023-09-19T18:11:12;969.7;;;17.8;100.0
51227;BME280;42714;48.260;10.980;2023-09-19T18:16:12;969.8;;;17.6;100.0
51227;BME280;42714;48.260;10.980;2023-09-19T18:21:13;969.9;;;17.4;100.0
51227;BME280;42714;48.260;10.980;2023-09-19T18:26:14;970.0;;;17.3;100.0
51227;BME280;42714;48.260;10.980;2023-09-19T18:31:15;970.0;;;17.1;100.0
51227;BME280;42714;48.260;10.980;2023-09-19T18:36:16;970.1;;;17.1;100.0
51227;BME280;42714;48.260;10.980;2023-09-19T18:41:17;970.1;;;17.0;100.0
51227;BME280;42714;48.260;10.980;2023-09-19T18:46:18;970.1;;;17.0;100.0
51227;BME280;42714;48.260;10.980;2023-09-19T18:51:19;970.1;;;17.0;100.0
51227;BME280;42714;48.260;10.980;2023-09-19T18:56:20;970.1;;;16.9;100.0
51227;BME280;42714;48.260;10.980;2023-09-19T19:01:21;970.1;;;16.9;100.0
51227;BME280;42714;48.260;10.980;2023-09-19T19:06:22;970.1;;;16.8;100.0
51227;BME280;42714;48.260;10.980;2023-09-19T19:11:23;970.2;;;16.4;100.0
51227;BME280;42714;48.260;10.980;2023-09-19T19:16:24;970.2;;;16.2;100.0
51227;BME280;42714;48.260;10.980;2023-09-19T19:21:25;970.3;;;16.1;100.0
51227;BME280;42714;48.260;10.980;2023-09-19T19:26:26;970.3;;;16.0;100.0
51227;BME280;42714;48.260;10.980;2023-09-19T19:31:27;970.2;;;15.9;100.0
51227;BME280;42714;48.260;10.980;2023-09-19T19:36:28;970.2;;;15.8;100.0
51227;BME280;42714;48.260;10.980;2023-09-19T19:41:29;970.2;;;15.7;100.0
51227;BME280;42714;48.260;10.980;2023-09-19T19:46:30;970.2;;;15.7;100.0
51227;BME280;42714;48.260;10.980;2023-09-19T19:51:31;970.3;;;15.6;100.0
51227;BME280;42714;48.260;10.980;2023-09-19T19:56:33;970.3;;;15.6;100.0
51227;BME280;42714;48.260;10.980;2023-09-19T20:01:33;970.4;;;15.4;100.0
51227;BME280;42714;48.260;10.980;2023-09-19T20:06:34;970.3;;;15.4;100.0
51227;BME280;42714;48.260;10.980;2023-09-19T20:11:37;970.4;;;15.3;100.0
51227;BME280;42714;48.260;10.980;2023-09-19T20:16:36;970.5;;;15.2;100.0
51227;BME280;42714;48.260;10.980;2023-09-19T20:21:37;970.5;;;15.1;100.0
51227;BME280;42714;48.260;10.980;2023-09-19T20:26:38;970.5;;;15.0;100.0
51227;BME280;42714;48.260;10.980;2023-09-19T20:31:39;970.5;;;14.9;100.0
51227;BME280;42714;48.260;10.980;2023-09-19T20:36:41;970.5;;;14.8;100.0
51227;BME280;42714;48.260;10.980;2023-09-19T20:41:41;970.6;;;14.8;100.0
51227;BME280;42714;48.260;10.980;2023-09-19T20:46:42;970.6;;;14.7;100.0
51227;BME280;42714;48.260;10.980;2023-09-19T20:51:43;970.6;;;14.7;100.0
51227;BME280;42714;48.260;10.980;2023-09-19T20:56:45;970.7;;;14.6;100.0
51227;BME280;42714;48.260;10.980;2023-09-19T21:01:46;970.8;;;14.6;100.0
51227;BME280;42714;48.260;10.980;2023-09-19T21:06:47;970.8;;;14.5;100.0
51227;BME280;42714;48.260;10.980;2023-09-19T21:11:48;970.8;;;14.4;100.0
51227;BME280;42714;48.260;10.980;2023-09-19T21:16:49;970.8;;;14.5;100.0
51227;BME280;42714;48.260;10.980;2023-09-19T21:21:50;970.8;;;14.3;100.0
51227;BME280;42714;48.260;10.980;2023-09-19T21:26:51;970.8;;;14.3;100.0
51227;BME280;42714;48.260;10.980;2023-09-19T21:31:52;970.8;;;14.2;100.0
51227;BME280;42714;48.260;10.980;2023-09-19T21:36:53;970.9;;;14.1;100.0
51227;BME280;42714;48.260;10.980;2023-09-19T21:41:54;970.9;;;14.1;100.0
51227;BME280;42714;48.260;10.980;2023-09-19T21:46:55;970.9;;;14.1;100.0
51227;BME280;42714;48.260;10.980;2023-09-19T21:51:56;970.9;;;14.1;100.0
51227;BME280;42714;48.260;10.980;2023-09-19T21:56:57;971.0;;;14.0;100.0
51227;BME280;42714;48.260;10.980;2023-09-19T22:01:58;971.0;;;14.1;100.0
51227;BME280;42714;48.260;10.980;2023-09-19T22:06:59;971.0;;;13.9;100.0
51227;BME280;42714;48.260;10.980;2023-09-19T22:12:00;971.0;;;13.9;100.0
51227;BME280;42714;48.260;10.980;2023-09-19T22:17:01;971.0;;;13.9;100.0
51227;BME280;42714;48.260;10.980;2023-09-19T22:22:02;971.0;;;13.8;100.0
51227;BME280;42714;48.260;10.980;2023-09-19T22:27:03;971.0;;;13.7;100.0
51227;BME280;42714;48.260;10.980;2023-09-19T22:32:04;970.9;;;13.7;100.0
51227;BME280;42714;48.260;10.980;2023-09-19T22:37:05;971.0;;;13.7;100.0
51227;BME280;42714;48.260;10.980;2023-09-19T22:42:06;971.0;;;13.7;100.0
51227;BME280;42714;48.260;10.980;2023-09-19T22:47:07;970.9;;;13.6;100.0
51227;BME280;42714;48.260;10.980;2023-09-19T22:52:08;970.9;;;13.6;100.0
51227;BME280;42714;48.260;10.980;2023-09-19T22:57:09;970.9;;;13.5;100.0
51227;BME280;42714;48.260;10.980;2023-09-19T23:02:10;970.9;;;13.5;100.0
51227;BME280;42714;48.260;10.980;2023-09-19T23:07:11;970.9;;;13.5;100.0
51227;BME280;42714;48.260;10.980;2023-09-19T23:12:12;970.8;;;13.5;100.0
51227;BME280;42714;48.260;10.980;2023-09-19T23:17:13;970.8;;;13.5;100.0
51227;BME280;42714;48.260;10.980;2023-09-19T23:22:14;970.8;;;13.4;100.0
51227;BME280;42714;48.260;10.980;2023-09-19T23:27:15;970.8;;;13.3;100.0
51227;BME280;42714;48.260;10.980;2023-09-19T23:32:16;970.8;;;13.4;100.0
51227;BME280;42714;48.260;10.980;2023-09-19T23:37:17;970.8;;;13.4;100.0
51227;BME280;42714;48.260;10.980;2023-09-19T23:42:18;970.8;;;13.4;100.0
51227;BME280;42714;48.260;10.980;2023-09-19T23:47:19;970.8;;;13.4;100.0
51227;BME280;42714;48.260;10.980;2023-09-19T23:52:20;970.9;;;13.4;100.0
51227;BME280;42714;48.260;10.980;2023-09-19T23:57:21;970.9;;;13.4;100.0
